Time;durP1;ratioP1;P1;durP2;ratioP2;P2;SDS_P1;SDS_P2;PMS_P1;PMS_P2;Temp;Humidity;BMP_temperature;BMP_pressure;BME280_temperature;BME280_humidity;BME280_pressure;Samples;Min_cycle;Max_cycle;Signal;HPM_P1;HPM_P2
2023/06/12 00:01:39;;;;;;;;;;;19.90;99.90;;;;;;5073661;28;20002;-62
2023/06/12 00:04:06;;;;;;;;;;;19.90;99.90;;;;;;5073753;28;20070;-62
2023/06/12 00:06:32;;;;;;;;;;;19.90;99.90;;;;;;5073704;28;20485;-64
2023/06/12 00:08:58;;;;;;;;;;;19.90;99.90;;;;;;5073976;28;19985;-62
2023/06/12 00:11:24;;;;;;;;;;;20.00;99.90;;;;;;5073788;28;20332;-64
2023/06/12 00:13:49;;;;;;;;;;;20.00;99.90;;;;;;5073522;28;20359;-63
2023/06/12 00:16:18;;;;;;;;;;;20.00;99.90;;;;;;5073612;28;19989;-64
2023/06/12 00:18:43;;;;;;;;;;;19.90;99.90;;;;;;5073689;28;20074;-64
2023/06/12 00:21:10;;;;;;;;;;;19.90;99.90;;;;;;5073579;28;20351;-64
2023/06/12 00:23:36;;;;;;;;;;;19.90;99.90;;;;;;5073499;28;20103;-64
2023/06/12 00:26:02;;;;;;;;;;;19.90;99.90;;;;;;5073844;28;20039;-62
2023/06/12 00:28:28;;;;;;;;;;;19.90;99.90;;;;;;5073960;28;20042;-64
2023/06/12 00:30:54;;;;;;;;;;;19.80;99.90;;;;;;5073266;28;20418;-62
2023/06/12 00:33:20;;;;;;;;;;;19.80;99.90;;;;;;5072292;28;20187;-62
2023/06/12 00:35:46;;;;;;;;;;;19.80;99.90;;;;;;5073482;28;20392;-62
2023/06/12 00:38:12;;;;;;;;;;;19.80;99.90;;;;;;5073395;28;19986;-63
2023/06/12 00:40:37;;;;;;;;;;;19.70;99.90;;;;;;5073738;28;20038;-63
2023/06/12 00:43:05;;;;;;;;;;;19.70;99.90;;;;;;5073454;28;20013;-64
2023/06/12 00:45:30;;;;;;;;;;;19.70;99.90;;;;;;5073119;28;20042;-64
2023/06/12 00:47:57;;;;;;;;;;;19.70;99.90;;;;;;5073498;28;20064;-63
2023/06/12 00:50:28;;;;;;;;;;;19.70;99.90;;;;;;5073364;28;19982;-63
2023/06/12 00:52:57;;;;;;;;;;;19.80;99.90;;;;;;5073277;28;19988;-64
2023/06/12 00:55:23;;;;;;;;;;;19.70;99.90;;;;;;5073329;28;20440;-61
2023/06/12 00:57:49;;;;;;;;;;;19.60;99.90;;;;;;5073524;28;19993;-62
2023/06/12 01:00:17;;;;;;;;;;;19.60;99.90;;;;;;5073003;28;20368;-63
2023/06/12 01:03:05;;;;;;;;;;;19.70;99.90;;;;;;5071639;28;20399;-64
2023/06/12 01:05:36;;;;;;;;;;;19.70;99.90;;;;;;5073127;28;19989;-62
2023/06/12 01:08:05;;;;;;;;;;;19.70;99.90;;;;;;5077274;28;19985;-63
2023/06/12 01:10:34;;;;;;;;;;;19.80;99.90;;;;;;5077004;28;19981;-63
2023/06/12 01:12:59;;;;;;;;;;;19.80;99.90;;;;;;5076615;28;20004;-63
2023/06/12 01:15:25;;;;;;;;;;;19.70;99.90;;;;;;5076832;28;20503;-63
2023/06/12 01:17:51;;;;;;;;;;;19.80;99.90;;;;;;5076852;28;20367;-64
2023/06/12 01:20:17;;;;;;;;;;;19.80;99.90;;;;;;5076954;28;19986;-63
2023/06/12 01:23:05;;;;;;;;;;;19.80;99.90;;;;;;5076705;28;20418;-62
2023/06/12 01:25:35;;;;;;;;;;;19.70;99.90;;;;;;5076613;28;19981;-63
2023/06/12 01:28:07;;;;;;;;;;;19.70;99.90;;;;;;5076371;28;20047;-62
2023/06/12 01:30:46;;;;;;;;;;;19.80;99.90;;;;;;5076481;28;19983;-62
2023/06/12 01:33:17;;;;;;;;;;;19.80;99.90;;;;;;5076551;28;20030;-63
2023/06/12 01:35:43;;;;;;;;;;;19.80;99.90;;;;;;5076414;28;19985;-64
2023/06/12 01:38:20;;;;;;;;;;;19.80;99.90;;;;;;5076341;28;20005;-63
2023/06/12 01:40:50;;;;;;;;;;;19.80;99.90;;;;;;5076482;28;19981;-64
2023/06/12 01:43:15;;;;;;;;;;;19.80;99.90;;;;;;5076088;28;20005;-63
2023/06/12 01:45:41;;;;;;;;;;;19.80;99.90;;;;;;5076135;28;19993;-63
2023/06/12 01:48:07;;;;;;;;;;;19.80;99.90;;;;;;5076395;28;19989;-64
2023/06/12 01:50:32;;;;;;;;;;;19.80;99.90;;;;;;5076489;28;20344;-63
2023/06/12 01:52:58;;;;;;;;;;;19.80;99.90;;;;;;5076107;28;20428;-62
2023/06/12 01:55:24;;;;;;;;;;;19.90;99.90;;;;;;5076058;28;20387;-63
2023/06/12 01:57:50;;;;;;;;;;;19.80;99.90;;;;;;5075915;28;19982;-64
2023/06/12 02:00:17;;;;;;;;;;;19.80;99.90;;;;;;5076265;28;20320;-64
2023/06/12 02:02:43;;;;;;;;;;;19.80;99.90;;;;;;5075674;28;20017;-63
2023/06/12 02:05:12;;;;;;;;;;;19.70;99.90;;;;;;5075976;28;20489;-64
2023/06/12 02:07:37;;;;;;;;;;;19.80;99.90;;;;;;5075871;28;20401;-64
2023/06/12 02:10:03;;;;;;;;;;;19.70;99.90;;;;;;5075885;28;19982;-63
2023/06/12 02:12:32;;;;;;;;;;;19.70;99.90;;;;;;5075634;28;19982;-63
2023/06/12 02:14:58;;;;;;;;;;;19.60;99.90;;;;;;5075727;28;19988;-63
2023/06/12 02:17:24;;;;;;;;;;;19.60;99.90;;;;;;5075121;28;19986;-64
2023/06/12 02:19:50;;;;;;;;;;;19.70;99.90;;;;;;5075651;28;20459;-63
2023/06/12 02:22:15;;;;;;;;;;;19.70;99.90;;;;;;5075455;28;20005;-64
2023/06/12 02:24:41;;;;;;;;;;;19.80;99.90;;;;;;5075565;28;20036;-63
2023/06/12 02:27:07;;;;;;;;;;;19.80;99.90;;;;;;5075424;28;20027;-64
2023/06/12 02:29:32;;;;;;;;;;;19.80;99.90;;;;;;5075529;28;20451;-64
2023/06/12 02:31:58;;;;;;;;;;;19.80;99.90;;;;;;5075347;28;19989;-64
2023/06/12 02:34:23;;;;;;;;;;;19.70;99.90;;;;;;5075678;28;19985;-63
2023/06/12 02:36:49;;;;;;;;;;;19.70;99.90;;;;;;5075366;28;20405;-62
2023/06/12 02:39:15;;;;;;;;;;;19.70;99.90;;;;;;5075015;28;19988;-63
2023/06/12 02:41:45;;;;;;;;;;;19.70;99.90;;;;;;5075496;28;19985;-63
2023/06/12 02:44:11;;;;;;;;;;;19.70;99.90;;;;;;5075243;28;19981;-61
2023/06/12 02:46:51;;;;;;;;;;;19.70;99.90;;;;;;5075036;28;20039;-63
2023/06/12 02:49:17;;;;;;;;;;;19.70;99.90;;;;;;5075101;28;20481;-63
2023/06/12 02:51:42;;;;;;;;;;;19.70;99.90;;;;;;5075010;28;20347;-64
2023/06/12 02:54:08;;;;;;;;;;;19.70;99.90;;;;;;5074731;28;19985;-63
2023/06/12 02:56:33;;;;;;;;;;;19.80;99.90;;;;;;5074921;28;19981;-63
2023/06/12 02:58:59;;;;;;;;;;;19.80;99.90;;;;;;5074857;28;19989;-62
2023/06/12 03:01:25;;;;;;;;;;;19.80;99.90;;;;;;5074687;28;20029;-63
2023/06/12 03:03:52;;;;;;;;;;;19.80;99.90;;;;;;5074540;28;20425;-63
2023/06/12 03:06:18;;;;;;;;;;;19.80;99.90;;;;;;5075032;28;20038;-64
2023/06/12 03:08:44;;;;;;;;;;;19.80;99.90;;;;;;5074450;28;19981;-63
2023/06/12 03:11:09;;;;;;;;;;;19.70;99.90;;;;;;5074670;28;20458;-64
2023/06/12 03:13:35;;;;;;;;;;;19.80;99.90;;;;;;5074545;28;20057;-63
2023/06/12 03:16:02;;;;;;;;;;;19.70;99.90;;;;;;5074464;28;20068;-64
2023/06/12 03:18:27;;;;;;;;;;;19.70;99.90;;;;;;5074654;28;20356;-62
2023/06/12 03:20:53;;;;;;;;;;;19.60;99.90;;;;;;5074400;28;20080;-63
2023/06/12 03:23:19;;;;;;;;;;;19.50;99.90;;;;;;5074093;28;20009;-63
2023/06/12 03:25:44;;;;;;;;;;;19.60;99.90;;;;;;5074379;28;19985;-62
2023/06/12 03:28:10;;;;;;;;;;;19.50;99.90;;;;;;5074239;28;19985;-64
2023/06/12 03:30:35;;;;;;;;;;;19.50;99.90;;;;;;5074100;28;19981;-62
2023/06/12 03:33:02;;;;;;;;;;;19.50;99.90;;;;;;5074103;28;19981;-64
2023/06/12 03:35:29;;;;;;;;;;;19.50;99.90;;;;;;5074206;28;19986;-62
2023/06/12 03:37:55;;;;;;;;;;;19.60;99.90;;;;;;5074275;28;19985;-63
2023/06/12 03:40:20;;;;;;;;;;;19.60;99.90;;;;;;5073954;28;19992;-63
2023/06/12 03:42:46;;;;;;;;;;;19.60;99.90;;;;;;5074038;28;20045;-64
2023/06/12 03:45:11;;;;;;;;;;;19.60;99.90;;;;;;5074045;28;20432;-63
2023/06/12 03:47:37;;;;;;;;;;;19.50;99.90;;;;;;5073924;28;20511;-63
2023/06/12 03:50:02;;;;;;;;;;;19.40;99.90;;;;;;5074092;28;19989;-62
2023/06/12 03:52:28;;;;;;;;;;;19.40;99.90;;;;;;5073715;28;19985;-63
2023/06/12 03:54:54;;;;;;;;;;;19.50;99.90;;;;;;5073939;28;20004;-62
2023/06/12 03:57:20;;;;;;;;;;;19.50;99.90;;;;;;5074356;28;20506;-63
2023/06/12 03:59:46;;;;;;;;;;;19.50;99.90;;;;;;5074120;28;20325;-64
2023/06/12 04:02:12;;;;;;;;;;;19.50;99.90;;;;;;5073531;28;20017;-64
2023/06/12 04:04:37;;;;;;;;;;;19.50;99.90;;;;;;5073783;28;20100;-64
2023/06/12 04:07:03;;;;;;;;;;;19.60;99.90;;;;;;5073653;28;19981;-63
2023/06/12 04:09:28;;;;;;;;;;;19.50;99.90;;;;;;5073803;28;19982;-62
2023/06/12 04:11:54;;;;;;;;;;;19.40;99.90;;;;;;5073657;28;20348;-64
2023/06/12 04:14:20;;;;;;;;;;;19.30;99.90;;;;;;5073717;28;19989;-64
2023/06/12 04:16:46;;;;;;;;;;;19.30;99.90;;;;;;5073788;28;19982;-63
2023/06/12 04:19:12;;;;;;;;;;;19.40;99.90;;;;;;5073633;28;20450;-64
2023/06/12 04:21:37;;;;;;;;;;;19.40;99.90;;;;;;5073422;28;20028;-63
2023/06/12 04:24:04;;;;;;;;;;;19.40;99.90;;;;;;5073609;28;20058;-64
2023/06/12 04:26:31;;;;;;;;;;;19.40;99.90;;;;;;5073557;28;20393;-63
2023/06/12 04:28:56;;;;;;;;;;;19.40;99.90;;;;;;5073616;28;19982;-63
2023/06/12 04:31:23;;;;;;;;;;;19.40;99.90;;;;;;5073669;28;20357;-64
2023/06/12 04:33:51;;;;;;;;;;;19.40;99.90;;;;;;5073449;28;19996;-63
2023/06/12 04:36:17;;;;;;;;;;;19.40;99.90;;;;;;5073351;28;19985;-63
2023/06/12 04:38:43;;;;;;;;;;;19.40;99.90;;;;;;5073494;28;20047;-63
2023/06/12 04:41:09;;;;;;;;;;;19.50;99.90;;;;;;5074462;28;19981;-64
2023/06/12 04:43:36;;;;;;;;;;;19.50;99.90;;;;;;5077777;28;20013;-63
2023/06/12 04:46:02;;;;;;;;;;;19.50;99.90;;;;;;5077399;28;20088;-63
2023/06/12 04:48:28;;;;;;;;;;;19.50;99.90;;;;;;5077495;28;20050;-63
2023/06/12 04:50:58;;;;;;;;;;;19.50;99.90;;;;;;5077317;28;20035;-64
2023/06/12 04:53:30;;;;;;;;;;;19.40;99.90;;;;;;5077582;28;20035;-64
2023/06/12 04:55:56;;;;;;;;;;;19.40;99.90;;;;;;5077176;28;20386;-64
2023/06/12 04:58:22;;;;;;;;;;;19.40;99.90;;;;;;5077243;28;20420;-64
2023/06/12 05:00:50;;;;;;;;;;;19.40;99.90;;;;;;5077095;28;20025;-62
2023/06/12 05:03:17;;;;;;;;;;;19.30;99.90;;;;;;5076895;28;20070;-62
2023/06/12 05:05:44;;;;;;;;;;;19.30;99.90;;;;;;5077099;28;20030;-63
2023/06/12 05:08:10;;;;;;;;;;;19.30;99.90;;;;;;5076986;28;19981;-63
2023/06/12 05:10:35;;;;;;;;;;;19.20;99.90;;;;;;5076906;28;20347;-63
2023/06/12 05:13:02;;;;;;;;;;;19.20;99.90;;;;;;5076719;28;19992;-63
2023/06/12 05:15:28;;;;;;;;;;;19.10;99.90;;;;;;5077094;28;20060;-63
2023/06/12 05:17:54;;;;;;;;;;;19.10;99.90;;;;;;5076849;28;20436;-63
2023/06/12 05:20:20;;;;;;;;;;;19.00;99.90;;;;;;5076641;28;19985;-63
2023/06/12 05:22:45;;;;;;;;;;;18.90;99.90;;;;;;5076972;28;20010;-63
2023/06/12 05:25:11;;;;;;;;;;;18.90;99.90;;;;;;5076716;28;20460;-63
2023/06/12 05:27:36;;;;;;;;;;;18.90;99.90;;;;;;5076809;28;19987;-63
2023/06/12 05:30:03;;;;;;;;;;;18.90;99.90;;;;;;5076706;28;20030;-63
2023/06/12 05:32:29;;;;;;;;;;;18.90;99.90;;;;;;5076505;28;19992;-63
2023/06/12 05:34:55;;;;;;;;;;;18.90;99.90;;;;;;5076171;28;19981;-63
2023/06/12 05:37:20;;;;;;;;;;;18.90;99.90;;;;;;5076567;28;20085;-63
2023/06/12 05:39:46;;;;;;;;;;;18.90;99.90;;;;;;5076327;28;20384;-63
2023/06/12 05:42:12;;;;;;;;;;;18.90;99.90;;;;;;5076029;28;20005;-63
2023/06/12 05:44:37;;;;;;;;;;;18.80;99.90;;;;;;5075371;28;19985;-63
2023/06/12 05:47:03;;;;;;;;;;;18.90;99.90;;;;;;5076406;28;19982;-63
2023/06/12 05:49:28;;;;;;;;;;;18.90;99.90;;;;;;5076110;28;19982;-63
2023/06/12 05:51:54;;;;;;;;;;;18.80;99.90;;;;;;5075997;28;19988;-63
2023/06/12 05:54:19;;;;;;;;;;;18.80;99.90;;;;;;5076129;28;20028;-63
2023/06/12 05:56:45;;;;;;;;;;;18.90;99.90;;;;;;5075975;28;19985;-63
2023/06/12 05:59:11;;;;;;;;;;;18.80;99.90;;;;;;5075722;28;19981;-63
2023/06/12 06:01:36;;;;;;;;;;;18.80;99.90;;;;;;5075431;28;20048;-62
2023/06/12 06:04:02;;;;;;;;;;;18.90;99.90;;;;;;5093988;28;20023;-63
2023/06/12 06:06:30;;;;;;;;;;;18.90;99.90;;;;;;5095707;28;19989;-63
2023/06/12 06:08:56;;;;;;;;;;;18.80;99.90;;;;;;5096190;28;20351;-63
2023/06/12 06:11:21;;;;;;;;;;;18.90;99.90;;;;;;5096028;28;19987;-63
2023/06/12 06:13:47;;;;;;;;;;;18.80;99.90;;;;;;5096882;28;19988;-63
2023/06/12 06:16:12;;;;;;;;;;;18.90;99.90;;;;;;5095964;28;20409;-63
2023/06/12 06:18:41;;;;;;;;;;;18.90;99.90;;;;;;5096030;28;20384;-63
2023/06/12 06:21:07;;;;;;;;;;;18.90;99.90;;;;;;5096310;28;19981;-63
2023/06/12 06:23:33;;;;;;;;;;;18.90;99.90;;;;;;5095787;28;20011;-63
2023/06/12 06:25:59;;;;;;;;;;;18.80;99.90;;;;;;5095846;28;20047;-63
2023/06/12 06:28:24;;;;;;;;;;;18.80;99.90;;;;;;5096460;28;20024;-63
2023/06/12 06:30:51;;;;;;;;;;;18.80;99.90;;;;;;5095474;28;20439;-63
2023/06/12 06:33:16;;;;;;;;;;;18.80;99.90;;;;;;5095713;28;19982;-63
2023/06/12 06:35:42;;;;;;;;;;;18.90;99.90;;;;;;5095320;28;20389;-63
2023/06/12 06:38:07;;;;;;;;;;;18.90;99.90;;;;;;5095037;28;19993;-63
2023/06/12 06:40:33;;;;;;;;;;;18.90;99.90;;;;;;5095632;28;20017;-63
2023/06/12 06:42:58;;;;;;;;;;;18.90;99.90;;;;;;5095165;28;20013;-63
2023/06/12 06:45:24;;;;;;;;;;;18.90;99.90;;;;;;5095064;28;19981;-63
2023/06/12 06:47:50;;;;;;;;;;;18.90;99.90;;;;;;5095673;28;20008;-63
2023/06/12 06:50:16;;;;;;;;;;;18.80;99.90;;;;;;5095257;28;19985;-64
2023/06/12 06:52:41;;;;;;;;;;;18.80;99.90;;;;;;5093963;28;19981;-63
2023/06/12 06:55:07;;;;;;;;;;;18.90;99.90;;;;;;5095613;28;19988;-63
2023/06/12 06:57:33;;;;;;;;;;;18.90;99.90;;;;;;5091293;28;19989;-63
2023/06/12 07:00:01;;;;;;;;;;;18.80;99.90;;;;;;5090497;28;19996;-63
2023/06/12 07:02:26;;;;;;;;;;;18.80;99.90;;;;;;5092588;28;20528;-63
2023/06/12 07:04:52;;;;;;;;;;;18.80;99.90;;;;;;5085307;28;20080;-63
2023/06/12 07:07:18;;;;;;;;;;;18.90;99.90;;;;;;5079924;28;20016;-63
2023/06/12 07:09:43;;;;;;;;;;;19.00;99.90;;;;;;5083142;28;19981;-63
2023/06/12 07:12:11;;;;;;;;;;;19.10;99.90;;;;;;5074612;28;19992;-63
2023/06/12 07:14:36;;;;;;;;;;;19.10;99.90;;;;;;5083940;28;20044;-64
2023/06/12 07:17:02;;;;;;;;;;;19.20;99.90;;;;;;5092714;28;20344;-64
2023/06/12 07:19:27;;;;;;;;;;;19.20;99.90;;;;;;5091001;28;19985;-63
2023/06/12 07:21:53;;;;;;;;;;;19.20;99.90;;;;;;5087640;28;19992;-63
2023/06/12 07:24:20;;;;;;;;;;;19.20;99.90;;;;;;5092364;28;19989;-63
2023/06/12 07:26:46;;;;;;;;;;;19.20;99.90;;;;;;5090281;28;20367;-63
2023/06/12 07:29:14;;;;;;;;;;;19.20;99.90;;;;;;5088301;28;19985;-63
2023/06/12 07:31:42;;;;;;;;;;;19.20;99.90;;;;;;5088262;28;20463;-63
2023/06/12 07:34:08;;;;;;;;;;;19.10;99.90;;;;;;5087170;28;20012;-63
2023/06/12 07:36:35;;;;;;;;;;;19.00;99.90;;;;;;5092254;28;20444;-63
2023/06/12 07:39:01;;;;;;;;;;;19.10;99.90;;;;;;5085416;28;20054;-63
2023/06/12 07:41:27;;;;;;;;;;;19.10;99.90;;;;;;5084683;28;19985;-63
2023/06/12 07:43:53;;;;;;;;;;;19.10;99.90;;;;;;5083288;28;20384;-63
2023/06/12 07:46:18;;;;;;;;;;;19.10;99.90;;;;;;5088491;28;19989;-64
2023/06/12 07:48:44;;;;;;;;;;;19.10;99.90;;;;;;5091551;28;19988;-64
2023/06/12 07:51:09;;;;;;;;;;;19.10;99.90;;;;;;5084231;28;20050;-63
2023/06/12 07:53:35;;;;;;;;;;;19.10;99.90;;;;;;5090308;28;19986;-63
2023/06/12 07:56:01;;;;;;;;;;;19.10;99.90;;;;;;5090983;28;20318;-63
2023/06/12 07:58:27;;;;;;;;;;;19.10;99.90;;;;;;5092967;28;19985;-64
2023/06/12 08:00:55;;;;;;;;;;;19.20;99.90;;;;;;5093065;28;20054;-63
2023/06/12 08:03:24;;;;;;;;;;;19.10;99.90;;;;;;5085701;28;20017;-63
2023/06/12 08:05:53;;;;;;;;;;;19.10;99.90;;;;;;5090337;28;19985;-63
2023/06/12 08:08:18;;;;;;;;;;;19.00;99.90;;;;;;5091200;28;20079;-64
2023/06/12 08:10:44;;;;;;;;;;;19.00;99.90;;;;;;5084025;28;20511;-63
2023/06/12 08:13:09;;;;;;;;;;;19.00;99.90;;;;;;5079475;28;20375;-63
2023/06/12 08:15:36;;;;;;;;;;;19.00;99.90;;;;;;5088088;28;19985;-63
2023/06/12 08:18:01;;;;;;;;;;;19.00;99.90;;;;;;5088236;28;20466;-63
2023/06/12 08:20:27;;;;;;;;;;;18.90;99.90;;;;;;5072875;28;19985;-63
2023/06/12 08:22:56;;;;;;;;;;;18.80;99.90;;;;;;5092356;28;20001;-63
2023/06/12 08:25:22;;;;;;;;;;;18.80;99.90;;;;;;5092730;28;19992;-63
2023/06/12 08:27:48;;;;;;;;;;;18.80;99.90;;;;;;5093597;28;20411;-63
2023/06/12 08:30:14;;;;;;;;;;;18.70;99.90;;;;;;5090657;28;19989;-63
2023/06/12 08:32:40;;;;;;;;;;;18.80;99.90;;;;;;5093035;28;19992;-63
2023/06/12 08:35:05;;;;;;;;;;;18.70;99.90;;;;;;5093230;28;19985;-65
2023/06/12 08:37:32;;;;;;;;;;;18.70;99.90;;;;;;5092438;28;20319;-62
2023/06/12 08:39:58;;;;;;;;;;;18.70;99.90;;;;;;5075082;28;20159;-65
2023/06/12 08:42:23;;;;;;;;;;;18.70;99.90;;;;;;5072503;28;20055;-63
2023/06/12 08:44:52;;;;;;;;;;;18.70;99.90;;;;;;5071015;28;20001;-63
2023/06/12 08:47:18;;;;;;;;;;;18.60;99.90;;;;;;5071071;28;19986;-64
2023/06/12 08:49:45;;;;;;;;;;;18.70;99.90;;;;;;5079342;28;20104;-66
2023/06/12 08:52:12;;;;;;;;;;;18.60;99.90;;;;;;5087762;28;20038;-65
2023/06/12 08:54:39;;;;;;;;;;;18.60;99.90;;;;;;5091861;28;19996;-67
2023/06/12 08:57:06;;;;;;;;;;;18.70;99.90;;;;;;5090361;28;20349;-63
2023/06/12 08:59:32;;;;;;;;;;;18.60;99.90;;;;;;5089743;28;19992;-64
2023/06/12 09:01:58;;;;;;;;;;;18.70;99.90;;;;;;5086553;28;20001;-64
2023/06/12 09:04:28;;;;;;;;;;;18.70;99.90;;;;;;5070817;28;20064;-66
2023/06/12 09:07:01;;;;;;;;;;;18.60;99.90;;;;;;5071614;28;19981;-63
2023/06/12 09:09:40;;;;;;;;;;;18.60;99.90;;;;;;5078357;28;19989;-62
2023/06/12 09:12:08;;;;;;;;;;;18.50;99.90;;;;;;5089448;28;19993;-63
2023/06/12 09:14:36;;;;;;;;;;;18.60;99.90;;;;;;5081192;28;19988;-65
2023/06/12 09:17:02;;;;;;;;;;;18.60;99.90;;;;;;5075687;28;20341;-65
2023/06/12 09:19:35;;;;;;;;;;;18.50;99.90;;;;;;5079448;28;20033;-62
2023/06/12 09:22:01;;;;;;;;;;;18.50;99.90;;;;;;5091656;28;19989;-63
2023/06/12 09:24:27;;;;;;;;;;;18.50;99.90;;;;;;5091319;28;20043;-67
2023/06/12 09:26:54;;;;;;;;;;;18.50;99.90;;;;;;5092881;28;20020;-63
2023/06/12 09:29:25;;;;;;;;;;;18.40;99.90;;;;;;5083443;28;19981;-64
2023/06/12 09:31:51;;;;;;;;;;;18.40;99.90;;;;;;5096264;28;20323;-67
2023/06/12 09:34:17;;;;;;;;;;;18.50;99.90;;;;;;5077374;28;20029;-66
2023/06/12 09:36:43;;;;;;;;;;;18.60;99.90;;;;;;5075203;28;19981;-64
2023/06/12 09:39:15;;;;;;;;;;;18.60;99.90;;;;;;5083630;28;20466;-64
2023/06/12 09:41:47;;;;;;;;;;;18.70;99.90;;;;;;5096441;28;19985;-69
2023/06/12 09:44:12;;;;;;;;;;;18.80;99.90;;;;;;5094527;28;20005;-61
2023/06/12 09:46:38;;;;;;;;;;;18.80;99.90;;;;;;5096022;28;19989;-64
2023/06/12 09:49:04;;;;;;;;;;;18.80;99.90;;;;;;5094506;28;19982;-62
2023/06/12 09:51:32;;;;;;;;;;;18.80;99.90;;;;;;5093801;28;19985;-61
2023/06/12 09:53:59;;;;;;;;;;;18.90;99.90;;;;;;5093831;28;20359;-64
2023/06/12 09:56:25;;;;;;;;;;;18.90;99.90;;;;;;5092549;28;20034;-62
2023/06/12 09:58:52;;;;;;;;;;;18.90;99.90;;;;;;5092991;28;20751;-63
2023/06/12 10:01:19;;;;;;;;;;;18.80;99.90;;;;;;5092060;28;20455;-61
2023/06/12 10:03:47;;;;;;;;;;;18.70;99.90;;;;;;5093412;28;20021;-64
2023/06/12 10:06:14;;;;;;;;;;;18.70;99.90;;;;;;5094932;28;19981;-62
2023/06/12 10:08:40;;;;;;;;;;;18.60;99.90;;;;;;5094064;28;19995;-64
2023/06/12 10:11:11;;;;;;;;;;;18.70;99.90;;;;;;5093929;28;19988;-63
2023/06/12 10:13:38;;;;;;;;;;;18.70;99.90;;;;;;5093849;28;19985;-62
2023/06/12 10:16:04;;;;;;;;;;;18.60;99.90;;;;;;5094445;28;19981;-63
2023/06/12 10:18:30;;;;;;;;;;;18.40;99.90;;;;;;5093937;28;19988;-62
2023/06/12 10:20:56;;;;;;;;;;;18.40;99.90;;;;;;5095252;28;20025;-65
2023/06/12 10:23:22;;;;;;;;;;;18.40;99.90;;;;;;5094648;28;20084;-65
2023/06/12 10:25:48;;;;;;;;;;;18.40;99.90;;;;;;5095545;28;19992;-65
2023/06/12 10:28:15;;;;;;;;;;;18.50;99.90;;;;;;5086758;28;19989;-62
2023/06/12 10:31:01;;;;;;;;;;;18.50;99.90;;;;;;5074406;28;20004;-63
2023/06/12 10:33:26;;;;;;;;;;;18.60;99.90;;;;;;5065920;28;20459;-62
2023/06/12 10:35:52;;;;;;;;;;;18.60;99.90;;;;;;5080413;28;19990;-63
2023/06/12 10:38:18;;;;;;;;;;;18.70;99.90;;;;;;5087577;28;20051;-62
2023/06/12 10:40:49;;;;;;;;;;;18.90;99.90;;;;;;5077337;28;20455;-64
2023/06/12 10:43:20;;;;;;;;;;;19.00;99.90;;;;;;5083242;28;20030;-63
2023/06/12 10:45:55;;;;;;;;;;;19.10;99.90;;;;;;5075298;28;20036;-63
2023/06/12 10:48:22;;;;;;;;;;;19.10;99.90;;;;;;5072689;28;19989;-63
2023/06/12 10:50:48;;;;;;;;;;;19.30;99.90;;;;;;5086378;28;20092;-64
2023/06/12 10:53:15;;;;;;;;;;;19.40;99.90;;;;;;5092506;28;20396;-64
2023/06/12 10:55:41;;;;;;;;;;;19.40;99.90;;;;;;5091031;28;20003;-62
2023/06/12 10:58:12;;;;;;;;;;;19.50;99.90;;;;;;5092459;28;20007;-62
2023/06/12 11:00:48;;;;;;;;;;;19.50;99.90;;;;;;5093878;28;19986;-62
2023/06/12 11:03:16;;;;;;;;;;;19.60;99.90;;;;;;5093656;28;20020;-63
2023/06/12 11:05:49;;;;;;;;;;;19.50;99.90;;;;;;5094621;28;19981;-65
2023/06/12 11:08:15;;;;;;;;;;;19.40;99.90;;;;;;5094255;28;20489;-64
2023/06/12 11:10:41;;;;;;;;;;;19.50;99.90;;;;;;5095199;28;19981;-63
2023/06/12 11:13:07;;;;;;;;;;;19.60;99.90;;;;;;5086342;28;20012;-62
2023/06/12 11:15:40;;;;;;;;;;;19.60;99.90;;;;;;5088498;28;20603;-64
2023/06/12 11:18:05;;;;;;;;;;;19.60;99.90;;;;;;5092386;28;20033;-62
2023/06/12 11:20:33;;;;;;;;;;;19.70;99.90;;;;;;5092146;28;19993;-63
2023/06/12 11:23:00;;;;;;;;;;;19.70;99.90;;;;;;5093226;28;20005;-63
2023/06/12 11:25:26;;;;;;;;;;;19.70;99.90;;;;;;5093842;28;19985;-62
2023/06/12 11:27:54;;;;;;;;;;;19.60;99.90;;;;;;5093829;28;19986;-63
2023/06/12 11:30:20;;;;;;;;;;;19.70;99.90;;;;;;5094036;28;19981;-61
2023/06/12 11:32:45;;;;;;;;;;;19.90;99.90;;;;;;5092977;28;19996;-63
2023/06/12 11:35:11;;;;;;;;;;;20.20;99.90;;;;;;5094226;28;19988;-62
2023/06/12 11:37:38;;;;;;;;;;;20.40;99.90;;;;;;5094137;28;19987;-63
2023/06/12 11:40:09;;;;;;;;;;;20.40;99.90;;;;;;5094536;28;19988;-63
2023/06/12 11:42:38;;;;;;;;;;;20.50;99.90;;;;;;5092839;28;20000;-63
2023/06/12 11:45:06;;;;;;;;;;;20.50;99.90;;;;;;5091229;28;19989;-63
2023/06/12 11:47:34;;;;;;;;;;;20.50;99.90;;;;;;5086247;28;20001;-63
2023/06/12 11:50:01;;;;;;;;;;;20.50;99.90;;;;;;5073862;28;19990;-62
2023/06/12 11:52:27;;;;;;;;;;;20.60;99.90;;;;;;5080748;28;20508;-63
2023/06/12 11:55:00;;;;;;;;;;;20.60;99.90;;;;;;5075859;28;19994;-62
2023/06/12 11:57:26;;;;;;;;;;;20.60;99.90;;;;;;5083785;28;19989;-63
2023/06/12 11:59:56;;;;;;;;;;;20.60;99.90;;;;;;5088221;28;20000;-63
2023/06/12 12:02:32;;;;;;;;;;;20.70;99.90;;;;;;5078888;28;20067;-62
2023/06/12 12:04:59;;;;;;;;;;;20.70;99.90;;;;;;5072244;28;19995;-62
2023/06/12 12:07:26;;;;;;;;;;;20.50;99.90;;;;;;5077596;28;19989;-64
2023/06/12 12:10:08;;;;;;;;;;;20.60;99.90;;;;;;5093527;28;19990;-62
2023/06/12 12:12:46;;;;;;;;;;;20.50;99.90;;;;;;5091283;28;19988;-63
2023/06/12 12:15:12;;;;;;;;;;;20.50;99.90;;;;;;5093776;28;20428;-63
2023/06/12 12:17:38;;;;;;;;;;;20.60;99.90;;;;;;5093912;28;19985;-62
2023/06/12 12:20:08;;;;;;;;;;;20.60;99.90;;;;;;5092706;28;19981;-63
2023/06/12 12:22:37;;;;;;;;;;;20.60;99.90;;;;;;5093751;28;20011;-63
2023/06/12 12:25:03;;;;;;;;;;;20.60;99.90;;;;;;5093799;28;20336;-63
2023/06/12 12:27:28;;;;;;;;;;;20.70;99.90;;;;;;5085079;28;19993;-62
2023/06/12 12:29:54;;;;;;;;;;;20.80;99.90;;;;;;5078639;28;20398;-63
2023/06/12 12:32:20;;;;;;;;;;;20.80;99.80;;;;;;5071981;28;19989;-62
2023/06/12 12:34:47;;;;;;;;;;;20.60;99.90;;;;;;5072303;28;20341;-63
2023/06/12 12:37:12;;;;;;;;;;;20.60;99.90;;;;;;5072363;28;19988;-63
2023/06/12 12:39:38;;;;;;;;;;;20.50;99.90;;;;;;5071621;28;19985;-63
2023/06/12 12:42:03;;;;;;;;;;;20.50;99.90;;;;;;5072236;28;19982;-63
2023/06/12 12:44:29;;;;;;;;;;;20.40;99.90;;;;;;5072680;28;19990;-62
2023/06/12 12:46:55;;;;;;;;;;;20.40;99.90;;;;;;5073123;28;19985;-63
2023/06/12 12:49:20;;;;;;;;;;;20.50;99.90;;;;;;5072903;28;20031;-62
2023/06/12 12:51:46;;;;;;;;;;;20.50;99.90;;;;;;5072937;28;19982;-62
2023/06/12 12:54:12;;;;;;;;;;;20.50;99.90;;;;;;5073581;28;19986;-62
2023/06/12 12:56:39;;;;;;;;;;;20.60;99.90;;;;;;5073790;28;20077;-63
2023/06/12 12:59:06;;;;;;;;;;;20.60;99.90;;;;;;5073225;28;20027;-62
2023/06/12 13:01:32;;;;;;;;;;;20.50;99.90;;;;;;5073463;28;20002;-62
2023/06/12 13:03:58;;;;;;;;;;;20.50;99.90;;;;;;5076848;28;20032;-63
2023/06/12 13:06:23;;;;;;;;;;;20.50;99.90;;;;;;5077230;28;20031;-63
2023/06/12 13:08:49;;;;;;;;;;;20.50;99.90;;;;;;5077044;28;20387;-63
2023/06/12 13:11:15;;;;;;;;;;;20.50;99.90;;;;;;5077282;28;20043;-62
2023/06/12 13:13:43;;;;;;;;;;;20.50;99.90;;;;;;5076214;28;21531;-63
2023/06/12 13:16:08;;;;;;;;;;;20.50;99.90;;;;;;5076778;28;20055;-62
2023/06/12 13:18:34;;;;;;;;;;;20.60;99.90;;;;;;5076803;28;19989;-63
2023/06/12 13:21:01;;;;;;;;;;;20.70;99.90;;;;;;5076787;28;19989;-63
2023/06/12 13:23:27;;;;;;;;;;;20.80;99.90;;;;;;5076929;28;20009;-62
2023/06/12 13:25:53;;;;;;;;;;;20.70;99.90;;;;;;5076839;28;20039;-63
2023/06/12 13:28:18;;;;;;;;;;;20.50;99.90;;;;;;5076740;28;19986;-62
2023/06/12 13:30:44;;;;;;;;;;;20.30;99.90;;;;;;5076579;28;20393;-62
2023/06/12 13:33:10;;;;;;;;;;;20.20;99.90;;;;;;5076330;28;20351;-63
2023/06/12 13:35:36;;;;;;;;;;;20.10;99.90;;;;;;5076527;28;20033;-62
2023/06/12 13:38:01;;;;;;;;;;;19.90;99.90;;;;;;5076648;28;20328;-63
2023/06/12 13:40:27;;;;;;;;;;;20.00;99.90;;;;;;5076407;28;19992;-62
2023/06/12 13:42:53;;;;;;;;;;;20.00;99.90;;;;;;5076606;28;20009;-63
2023/06/12 13:45:19;;;;;;;;;;;20.00;99.90;;;;;;5076270;28;20332;-63
2023/06/12 13:47:47;;;;;;;;;;;20.10;99.90;;;;;;5076159;28;20546;-63
2023/06/12 13:50:13;;;;;;;;;;;20.20;99.90;;;;;;5076373;28;20028;-63
2023/06/12 13:52:39;;;;;;;;;;;20.20;99.90;;;;;;5076247;28;20032;-62
2023/06/12 13:55:05;;;;;;;;;;;20.10;99.90;;;;;;5076159;28;20035;-62
2023/06/12 13:57:31;;;;;;;;;;;20.10;99.90;;;;;;5076130;28;20367;-63
2023/06/12 13:59:57;;;;;;;;;;;20.10;99.90;;;;;;5076406;28;19986;-63
2023/06/12 14:02:22;;;;;;;;;;;20.00;99.90;;;;;;5075475;28;20375;-62
2023/06/12 14:04:48;;;;;;;;;;;19.90;99.90;;;;;;5076046;28;19994;-62
2023/06/12 14:07:13;;;;;;;;;;;19.80;99.90;;;;;;5075944;28;20347;-62
2023/06/12 14:09:39;;;;;;;;;;;19.80;99.90;;;;;;5075821;28;20034;-62
2023/06/12 14:12:06;;;;;;;;;;;19.90;99.90;;;;;;5076176;28;19985;-62
2023/06/12 14:14:31;;;;;;;;;;;19.90;99.90;;;;;;5074548;28;20355;-62